Inversion Research: Below Escarpment

*Note: All times are displayed in the local standard time of the station location.
**Rain - Equipment is designed to accurately record liquid precipitation; under conditions when precipitation is not in liquid form, the data displayed may not properly reflect rainfall values.

Date Max Temp
(°C)
Min Temp
(°C)
Avg Temp
(°C)
Rain (mm) Avg RH (%)
Sat, Oct 21, 2017 23.2 6.2 14.3 - 82.8
Fri, Oct 20, 2017 21.2 6.9 13.0 - 67.4
Thu, Oct 19, 2017 20.8 9.9 16.1 - 74.5
Wed, Oct 18, 2017 20.9 10.6 15.6 - 73.0
Tue, Oct 17, 2017 18.2 2.4 12.1 - 77.0
Mon, Oct 16, 2017 10.4 2.8 7.9 - 78.5
Sun, Oct 15, 2017 25.6 10.3 19.0 - 83.3
DateTime Avg Temp (°C) Rain (mm) RH (%)
Sun, Oct 22, 2017 13:00 23.1 - 56.8
Sun, Oct 22, 2017 12:00 21.9 - 60.3
Sun, Oct 22, 2017 11:00 20.5 - 64.3
Sun, Oct 22, 2017 10:00 18.6 - 70.5
Sun, Oct 22, 2017 09:00 15.3 - 86.8
Sun, Oct 22, 2017 08:00 13.2 - 92.5
Sun, Oct 22, 2017 07:00 13.9 - 85.5
Sun, Oct 22, 2017 06:00 13.6 - 84.8
Sun, Oct 22, 2017 05:00 13.4 - 80.5
Sun, Oct 22, 2017 04:00 14.7 - 75.3
Sun, Oct 22, 2017 03:00 13.5 - 81.0
Sun, Oct 22, 2017 02:00 14.0 - 77.3
Sun, Oct 22, 2017 01:00 14.4 - 84.0
Sun, Oct 22, 2017 00:00 13.1 - 94.3
Sat, Oct 21, 2017 23:00 10.8 - 100.0
Sat, Oct 21, 2017 22:00 10.6 - 100.0
Sat, Oct 21, 2017 21:00 11.6 - 100.0
Sat, Oct 21, 2017 20:00 11.9 - 99.8
Sat, Oct 21, 2017 19:00 14.3 - 89.5
Sat, Oct 21, 2017 18:00 20.3 - 56.3
Sat, Oct 21, 2017 17:00 22.1 - 48.8
Sat, Oct 21, 2017 16:00 22.8 - 47.0
Sat, Oct 21, 2017 15:00 23.0 - 47.0
Sat, Oct 21, 2017 14:00 22.7 - 50.0
Sat, Oct 21, 2017 13:00 21.7 - 54.8
Sat, Oct 21, 2017 12:00 19.9 - 61.3
Sat, Oct 21, 2017 11:00 18.3 - 65.5
Sat, Oct 21, 2017 10:00 16.7 - 77.8
Sat, Oct 21, 2017 09:00 11.0 - 99.8
Sat, Oct 21, 2017 08:00 6.5 - 100.0
Sat, Oct 21, 2017 07:00 7.0 - 100.0
Sat, Oct 21, 2017 06:00 8.1 - 100.0
Sat, Oct 21, 2017 05:00 10.5 - 97.0
Sat, Oct 21, 2017 04:00 10.1 - 100.0
Sat, Oct 21, 2017 03:00 8.2 - 100.0
Sat, Oct 21, 2017 02:00 11.5 - 100.0
Sat, Oct 21, 2017 01:00 11.7 - 98.5
Sat, Oct 21, 2017 00:00 9.3 - 100.0
Fri, Oct 20, 2017 23:00 8.8 - 99.3
Fri, Oct 20, 2017 22:00 10.7 - 87.3
Fri, Oct 20, 2017 21:00 13.0 - 70.5
Fri, Oct 20, 2017 20:00 12.3 - 63.8
Fri, Oct 20, 2017 19:00 14.1 - 56.8
Fri, Oct 20, 2017 18:00 18.4 - 42.8
Fri, Oct 20, 2017 17:00 19.9 - 42.0
Fri, Oct 20, 2017 16:00 20.4 - 44.3
Fri, Oct 20, 2017 15:00 20.8 - 43.0
Fri, Oct 20, 2017 14:00 21.0 - 38.8


asterix Register now to access more data! asterix